Time;durP1;ratioP1;P1;durP2;ratioP2;P2;SDS_P1;SDS_P2;PMS_P1;PMS_P2;Temp;Humidity;BMP_temperature;BMP_pressure;BME280_temperature;BME280_humidity;BME280_pressure;Samples;Min_cycle;Max_cycle;Signal;HPM_P1;HPM_P2
2022/09/29 00:00:54;;;;;;;6.60;5.93;;;11.50;99.90;;;;;;10568537;28;20216;-83
2022/09/29 00:05:58;;;;;;;5.50;5.00;;;11.50;99.90;;;;;;10499904;28;20219;-85
2022/09/29 00:11:00;;;;;;;6.60;5.93;;;11.60;99.90;;;;;;10555971;28;20686;-81
2022/09/29 00:16:03;;;;;;;7.33;5.27;;;11.60;99.90;;;;;;10517375;28;20207;-85
2022/09/29 00:21:09;;;;;;;5.53;4.93;;;11.70;99.90;;;;;;10536556;28;20208;-80
2022/09/29 00:26:13;;;;;;;5.60;5.20;;;11.70;99.90;;;;;;10529297;28;20192;-82
2022/09/29 00:31:16;;;;;;;6.53;5.93;;;11.70;99.90;;;;;;10493000;28;20343;-82
2022/09/29 00:36:21;;;;;;;5.63;5.10;;;11.70;99.90;;;;;;10545497;28;20279;-81
2022/09/29 00:41:25;;;;;;;6.33;5.73;;;11.70;99.90;;;;;;10513163;28;20204;-83
2022/09/29 00:46:38;;;;;;;6.53;5.10;;;11.70;99.90;;;;;;10534245;28;20191;-86
2022/09/29 00:51:47;;;;;;;5.53;5.03;;;11.80;99.90;;;;;;10512812;28;20629;-82
2022/09/29 00:56:51;;;;;;;5.63;5.03;;;11.80;99.90;;;;;;10537375;28;20193;-81
2022/09/29 01:01:53;;;;;;;5.20;4.83;;;11.80;99.90;;;;;;10524442;28;20216;-81
2022/09/29 01:06:58;;;;;;;5.47;5.07;;;11.70;99.90;;;;;;10494770;28;20656;-84
2022/09/29 01:12:01;;;;;;;6.10;5.10;;;11.80;99.90;;;;;;10554296;28;20569;-83
2022/09/29 01:17:04;;;;;;;5.77;5.37;;;11.80;99.90;;;;;;10514476;28;20291;-85
2022/09/29 01:22:30;;;;;;;4.73;4.43;;;11.80;99.90;;;;;;10529300;28;20247;-84
2022/09/29 01:28:10;;;;;;;5.20;4.70;;;11.90;99.90;;;;;;10447170;28;20492;-84
2022/09/29 01:33:24;;;;;;;8.60;5.33;;;11.90;99.90;;;;;;10514703;28;20207;-85
2022/09/29 01:38:39;;;;;;;5.57;5.17;;;11.90;99.90;;;;;;10531398;28;20193;-86
2022/09/29 01:43:47;;;;;;;5.40;4.90;;;12.00;99.90;;;;;;10512988;28;20216;-84
2022/09/29 01:48:53;;;;;;;5.30;4.63;;;12.00;99.90;;;;;;10541478;28;20192;-84
2022/09/29 01:54:00;;;;;;;4.90;4.50;;;12.00;99.90;;;;;;10496340;28;20223;-84
2022/09/29 01:59:10;;;;;;;4.40;4.10;;;12.00;99.90;;;;;;10516251;28;20192;-84
2022/09/29 02:04:16;;;;;;;21.53;13.27;;;12.00;99.90;;;;;;10545830;28;20221;-82
2022/09/29 02:09:26;;;;;;;13.53;10.23;;;12.00;99.90;;;;;;10517098;28;20200;-85
2022/09/29 02:14:30;;;;;;;7.60;6.90;;;12.00;99.90;;;;;;10530252;28;20213;-85
2022/09/29 02:19:36;;;;;;;7.80;5.80;;;12.00;99.90;;;;;;10528158;28;20192;-84
2022/09/29 02:24:39;;;;;;;6.40;5.80;;;12.10;99.90;;;;;;10524961;28;20188;-83
2022/09/29 02:29:41;;;;;;;5.13;4.80;;;12.10;99.90;;;;;;10530162;28;20250;-84
2022/09/29 02:34:47;;;;;;;5.73;5.23;;;12.20;99.90;;;;;;10506725;28;20212;-84
2022/09/29 02:40:00;;;;;;;5.27;4.87;;;12.20;99.90;;;;;;10534403;28;20284;-84
2022/09/29 02:45:17;;;;;;;5.17;4.87;;;12.20;99.90;;;;;;10514441;28;20287;-82
2022/09/29 02:50:40;;;;;;;5.93;5.43;;;12.20;99.90;;;;;;10525663;28;20246;-85
2022/09/29 02:55:49;;;;;;;4.80;4.50;;;12.20;99.90;;;;;;10540295;28;20188;-85
2022/09/29 03:00:54;;;;;;;5.30;5.00;;;12.20;99.90;;;;;;10540951;28;20212;-83
2022/09/29 03:05:57;;;;;;;5.50;5.10;;;12.20;99.90;;;;;;10540631;28;20189;-83
2022/09/29 03:10:59;;;;;;;6.53;5.50;;;12.20;99.90;;;;;;10538553;28;20240;-85
2022/09/29 03:16:02;;;;;;;5.60;5.10;;;12.20;99.90;;;;;;10541870;28;20563;-83
2022/09/29 03:21:05;;;;;;;5.33;5.13;;;12.20;99.90;;;;;;10525825;28;20638;-85
2022/09/29 03:26:07;;;;;;;4.63;4.10;;;12.20;99.90;;;;;;10529442;28;20194;-83
2022/09/29 03:31:10;;;;;;;5.07;4.77;;;12.20;99.90;;;;;;10503687;28;20230;-85
2022/09/29 03:36:13;;;;;;;5.30;4.90;;;12.20;99.90;;;;;;10526793;28;20203;-85
2022/09/29 03:41:15;;;;;;;5.20;4.90;;;12.00;99.90;;;;;;10522943;28;20227;-85
2022/09/29 03:46:18;;;;;;;6.43;6.00;;;11.90;99.90;;;;;;10521053;28;20192;-83
2022/09/29 03:51:21;;;;;;;6.07;5.77;;;11.90;99.90;;;;;;10518766;28;20693;-84
2022/09/29 03:56:23;;;;;;;6.37;6.00;;;11.70;99.90;;;;;;10548374;28;20276;-85
2022/09/29 04:01:25;;;;;;;6.63;6.23;;;11.60;99.90;;;;;;10493160;28;20239;-81
2022/09/29 04:06:29;;;;;;;6.60;5.90;;;11.50;99.90;;;;;;10504562;28;20731;-82
2022/09/29 04:11:31;;;;;;;7.03;6.53;;;11.40;99.90;;;;;;10473429;28;20308;-83
2022/09/29 04:16:33;;;;;;;7.70;7.10;;;11.30;99.90;;;;;;10488147;28;20269;-83
2022/09/29 04:21:39;;;;;;;8.40;6.17;;;11.30;99.90;;;;;;10517040;28;20272;-83
2022/09/29 04:26:41;;;;;;;6.33;5.93;;;11.30;99.90;;;;;;10511183;28;20257;-82
2022/09/29 04:31:44;;;;;;;6.57;6.10;;;11.30;99.90;;;;;;10534311;28;20220;-85
2022/09/29 04:36:47;;;;;;;7.97;7.43;;;11.10;99.90;;;;;;10491685;28;20187;-84
2022/09/29 04:41:49;;;;;;;10.73;9.73;;;11.00;99.90;;;;;;10515350;28;20623;-83
2022/09/29 04:46:51;;;;;;;22.27;17.63;;;11.00;99.90;;;;;;10507042;28;20204;-85
2022/09/29 04:51:54;;;;;;;18.83;16.90;;;10.90;99.90;;;;;;10558829;28;20220;-81
2022/09/29 04:56:57;;;;;;;18.13;16.40;;;10.90;99.90;;;;;;10521680;28;20201;-83
2022/09/29 05:01:59;;;;;;;10.60;9.77;;;10.80;99.90;;;;;;10497928;28;20284;-83
2022/09/29 05:07:02;;;;;;;12.20;10.90;;;10.80;99.90;;;;;;10522754;28;20193;-83
2022/09/29 05:12:04;;;;;;;10.00;9.30;;;10.80;99.90;;;;;;10487862;28;20572;-84
2022/09/29 05:17:07;;;;;;;13.53;12.43;;;10.90;99.90;;;;;;10489851;28;20189;-84
2022/09/29 05:22:10;;;;;;;18.23;16.63;;;10.80;99.90;;;;;;10490754;28;20220;-85
2022/09/29 05:27:12;;;;;;;15.70;14.60;;;10.80;99.90;;;;;;10543090;28;20256;-83
2022/09/29 05:32:14;;;;;;;11.20;10.33;;;10.90;99.90;;;;;;10509191;28;20211;-85
2022/09/29 05:37:18;;;;;;;11.47;10.37;;;10.90;99.90;;;;;;10486238;28;20241;-84
2022/09/29 05:42:20;;;;;;;8.97;8.37;;;10.90;99.90;;;;;;10484012;28;20228;-84
2022/09/29 05:47:22;;;;;;;10.47;9.57;;;10.90;99.90;;;;;;10508591;28;20195;-83
2022/09/29 05:52:26;;;;;;;8.73;8.13;;;10.90;99.90;;;;;;10536201;22;20226;-78
2022/09/29 05:57:28;;;;;;;10.00;9.30;;;11.00;99.90;;;;;;10511173;28;20657;-78
2022/09/29 06:02:31;;;;;;;14.77;13.37;;;11.00;99.90;;;;;;10497966;28;20229;-77
2022/09/29 06:07:34;;;;;;;7.93;7.43;;;11.00;99.90;;;;;;10518276;28;20219;-78
2022/09/29 06:12:37;;;;;;;7.97;7.13;;;11.00;99.90;;;;;;10497646;28;20643;-78
2022/09/29 06:17:39;;;;;;;8.60;7.80;;;11.00;99.90;;;;;;10499655;28;20220;-79
2022/09/29 06:22:43;;;;;;;7.83;7.30;;;11.10;99.90;;;;;;10478782;28;20217;-78
2022/09/29 06:27:45;;;;;;;7.47;6.90;;;11.10;99.90;;;;;;10445888;28;20225;-78
2022/09/29 06:32:47;;;;;;;7.90;7.30;;;11.20;99.90;;;;;;10475884;28;20394;-79
2022/09/29 06:37:51;;;;;;;8.90;7.47;;;11.30;99.90;;;;;;10474839;28;20192;-79
2022/09/29 06:42:53;;;;;;;7.20;6.73;;;11.40;99.90;;;;;;10477438;28;20744;-79
2022/09/29 06:47:58;;;;;;;8.77;7.97;;;11.60;99.90;;;;;;10480768;28;20193;-79
2022/09/29 06:53:02;;;;;;;8.70;8.10;;;11.70;99.90;;;;;;10477797;28;20299;-79
2022/09/29 06:58:04;;;;;;;8.10;7.50;;;11.80;99.90;;;;;;10481401;28;20240;-78
2022/09/29 07:03:06;;;;;;;11.40;8.00;;;11.90;99.90;;;;;;10458366;28;20731;-78
2022/09/29 07:08:11;;;;;;;8.07;7.47;;;12.00;99.90;;;;;;10460607;28;20215;-78
2022/09/29 07:13:13;;;;;;;8.03;7.53;;;12.10;99.90;;;;;;10474968;28;20685;-79
2022/09/29 07:18:15;;;;;;;6.93;6.40;;;12.20;99.90;;;;;;10474954;28;20229;-79
2022/09/29 07:23:18;;;;;;;8.83;8.13;;;12.20;99.90;;;;;;10478636;28;20215;-79
2022/09/29 07:28:21;;;;;;;7.40;7.00;;;12.30;99.90;;;;;;10448906;28;20283;-78
2022/09/29 07:33:23;;;;;;;8.07;7.47;;;12.50;99.90;;;;;;10465131;28;20225;-79
2022/09/29 07:38:26;;;;;;;7.40;6.90;;;12.50;99.90;;;;;;10463363;28;20186;-79
2022/09/29 07:43:30;;;;;;;7.43;7.00;;;12.60;99.90;;;;;;10481791;28;20209;-79
2022/09/29 07:48:33;;;;;;;8.43;7.83;;;12.80;99.90;;;;;;10462381;28;20193;-79
2022/09/29 07:53:36;;;;;;;7.80;7.30;;;12.80;99.90;;;;;;10483522;28;20213;-78
2022/09/29 07:58:39;;;;;;;7.27;6.57;;;12.90;99.90;;;;;;10483595;28;20244;-78
2022/09/29 08:03:43;;;;;;;9.37;8.67;;;13.10;99.90;;;;;;10448498;28;20635;-79
2022/09/29 08:08:48;;;;;;;9.30;8.40;;;13.20;99.90;;;;;;10482193;28;20193;-78
2022/09/29 08:13:52;;;;;;;8.20;7.50;;;13.40;99.90;;;;;;10524688;28;20799;-79
2022/09/29 08:18:56;;;;;;;8.33;7.73;;;13.50;99.90;;;;;;10500916;28;20277;-78
2022/09/29 08:24:03;;;;;;;7.13;6.73;;;13.60;99.90;;;;;;10478034;28;20211;-78
2022/09/29 08:29:05;;;;;;;7.17;6.37;;;13.70;99.90;;;;;;10479935;28;20185;-78
2022/09/29 08:34:07;;;;;;;8.43;7.93;;;13.80;99.90;;;;;;10458866;28;20603;-78
2022/09/29 08:39:11;;;;;;;8.27;7.60;;;13.80;99.90;;;;;;10480476;28;20610;-78
2022/09/29 08:44:19;;;;;;;6.70;6.20;;;14.00;99.90;;;;;;10476656;28;20764;-79
2022/09/29 08:49:25;;;;;;;7.03;6.53;;;14.20;99.90;;;;;;10474176;28;20205;-79
2022/09/29 08:54:32;;;;;;;9.40;8.70;;;14.20;99.90;;;;;;10465924;28;20235;-78
2022/09/29 08:59:34;;;;;;;7.60;7.10;;;14.30;99.90;;;;;;10499763;28;20565;-79
2022/09/29 09:04:59;;;;;;;10.23;9.23;;;14.30;99.90;;;;;;10494688;28;20291;-78
2022/09/29 09:10:08;;;;;;;7.80;7.20;;;;;;;;;;10457187;28;20204;-79
2022/09/29 09:15:27;;;;;;;8.00;7.40;;;14.60;99.90;;;;;;10477996;28;20226;-79
2022/09/29 09:20:34;;;;;;;7.50;7.10;;;;;;;;;;10462950;28;20212;-78
2022/09/29 09:25:40;;;;;;;7.73;7.23;;;;;;;;;;10490639;28;20570;-79
2022/09/29 09:30:45;;;;;;;8.10;7.50;;;;;;;;;;10493139;28;20575;-78
2022/09/29 09:35:50;;;;;;;7.57;7.07;;;;;;;;;;10496335;28;20220;-78
2022/09/29 09:40:58;;;;;;;6.63;6.20;;;14.80;99.90;;;;;;10507680;28;20251;-79
2022/09/29 09:46:08;;;;;;;7.87;7.30;;;14.90;99.90;;;;;;10510205;28;20288;-79
2022/09/29 09:51:38;;;;;;;6.87;6.33;;;15.00;99.90;;;;;;10494559;28;20259;-79
2022/09/29 09:57:16;;;;;;;7.20;6.70;;;15.10;99.90;;;;;;10488803;28;20192;-79
2022/09/29 10:02:21;;;;;;;8.10;7.30;;;;;;;;;;10478276;28;20604;-79
2022/09/29 10:07:24;;;;;;;7.47;6.97;;;;;;;;;;10495451;28;20253;-79
2022/09/29 10:12:26;;;;;;;6.60;6.20;;;15.40;99.90;;;;;;10485629;28;20241;-79
2022/09/29 10:17:37;;;;;;;6.73;6.13;;;15.50;99.90;;;;;;10497259;28;20242;-79
2022/09/29 10:22:39;;;;;;;5.57;5.27;;;15.60;99.90;;;;;;10499815;28;20212;-79
2022/09/29 10:27:44;;;;;;;6.83;6.43;;;15.60;99.90;;;;;;10487665;28;20192;-79
2022/09/29 10:32:48;;;;;;;4.67;4.37;;;15.70;99.90;;;;;;10494715;28;20209;-79
2022/09/29 10:38:00;;;;;;;6.63;6.23;;;15.80;99.90;;;;;;10467700;28;20202;-79
2022/09/29 10:43:23;;;;;;;6.70;5.97;;;15.90;99.90;;;;;;10520572;28;20221;-79
2022/09/29 10:48:27;;;;;;;6.87;6.33;;;15.90;99.90;;;;;;10480024;28;20219;-79
2022/09/29 10:53:35;;;;;;;4.77;4.43;;;15.70;99.90;;;;;;10475958;28;20287;-79
2022/09/29 10:58:41;;;;;;;5.80;5.50;;;15.60;99.90;;;;;;10512079;28;20228;-79
2022/09/29 11:03:50;;;;;;;6.43;5.93;;;15.40;99.90;;;;;;10498079;28;20224;-79
2022/09/29 11:08:57;;;;;;;4.73;4.43;;;15.40;99.90;;;;;;10493013;28;20193;-79
2022/09/29 11:13:59;;;;;;;5.77;5.27;;;15.40;99.90;;;;;;10522624;28;20234;-79
2022/09/29 11:19:07;;;;;;;5.93;5.47;;;15.40;99.90;;;;;;10536089;28;20609;-79
2022/09/29 11:24:14;;;;;;;6.00;5.50;;;15.40;99.90;;;;;;10535951;28;20213;-79
2022/09/29 11:29:28;;;;;;;5.80;5.40;;;15.40;99.90;;;;;;10509920;28;20195;-79
2022/09/29 11:35:04;;;;;;;6.30;5.80;;;15.50;99.90;;;;;;10535051;28;20269;-79
2022/09/29 11:40:12;;;;;;;6.30;5.80;;;15.60;99.90;;;;;;10507345;28;20199;-79
2022/09/29 11:45:22;;;;;;;5.00;4.70;;;15.60;99.90;;;;;;10527655;28;20262;-79
2022/09/29 11:55:42;;;;;;;6.07;5.67;;;15.70;99.90;;;;;;10466598;28;20208;-81
2022/09/29 12:01:01;;;;;;;4.00;3.80;;;15.80;99.90;;;;;;10433882;28;20241;-81
2022/09/29 12:06:32;;;;;;;4.17;3.80;;;15.90;98.50;;;;;;10443836;28;20235;-81
2022/09/29 12:11:45;;;;;;;4.07;3.80;;;15.80;98.60;;;;;;10424107;28;20221;-81
2022/09/29 12:16:53;;;;;;;8.60;7.20;;;15.80;99.60;;;;;;10446020;28;20332;-81
2022/09/29 12:22:00;;;;;;;6.30;5.73;;;15.90;99.30;;;;;;10451489;28;20229;-81
2022/09/29 12:27:06;;;;;;;4.87;4.57;;;16.00;97.60;;;;;;10451941;28;20229;-81
2022/09/29 12:32:13;;;;;;;5.83;5.37;;;16.00;97.90;;;;;;10421499;28;20214;-81
2022/09/29 12:37:20;;;;;;;7.00;6.30;;;16.00;98.40;;;;;;10449871;28;20291;-82
2022/09/29 12:42:52;;;;;;;5.90;5.40;;;16.10;99.10;;;;;;10454278;28;20827;-81
2022/09/29 12:48:13;;;;;;;5.10;4.70;;;16.10;99.00;;;;;;10444314;28;20570;-81
2022/09/29 12:53:21;;;;;;;3.67;3.47;;;16.10;99.00;;;;;;10453938;28;20235;-82
2022/09/29 12:58:32;;;;;;;4.83;4.60;;;16.10;98.90;;;;;;10456472;28;20331;-82
2022/09/29 13:04:03;;;;;;;4.90;4.70;;;16.10;99.10;;;;;;10459453;28;20217;-82
2022/09/29 13:09:21;;;;;;;3.67;3.50;;;16.20;99.20;;;;;;10441173;28;20205;-81
2022/09/29 13:14:54;;;;;;;4.87;4.60;;;16.20;98.10;;;;;;10421857;28;20222;-82
2022/09/29 13:20:28;;;;;;;4.47;4.07;;;16.20;99.10;;;;;;10446422;28;20193;-81
2022/09/29 13:25:36;;;;;;;5.20;4.90;;;16.10;99.30;;;;;;10462073;28;20181;-81
2022/09/29 13:30:40;;;;;;;5.00;4.50;;;16.00;98.60;;;;;;10444922;28;20231;-81
2022/09/29 13:35:45;;;;;;;4.97;4.57;;;16.00;99.80;;;;;;10460485;28;20219;-82
2022/09/29 13:41:14;;;;;;;6.70;6.10;;;16.00;99.90;;;;;;10441451;28;20592;-82
2022/09/29 13:46:37;;;;;;;5.70;5.30;;;15.90;99.30;;;;;;10457133;28;20197;-83
2022/09/29 13:51:49;;;;;;;5.27;4.87;;;15.90;99.70;;;;;;10475320;28;20251;-83
2022/09/29 13:56:58;;;;;;;5.40;5.00;;;16.00;99.60;;;;;;10461599;28;20217;-82
2022/09/29 14:02:17;;;;;;;3.57;3.33;;;16.00;99.90;;;;;;10472941;28;20274;-82
2022/09/29 14:07:39;;;;;;;5.40;4.90;;;16.00;99.90;;;;;;10474663;28;20185;-82
2022/09/29 14:12:44;;;;;;;5.17;4.60;;;16.00;98.50;;;;;;10456214;28;20217;-82
2022/09/29 14:17:55;;;;;;;6.40;5.70;;;16.00;98.40;;;;;;10473548;28;20251;-82
2022/09/29 14:22:59;;;;;;;5.03;4.77;;;15.90;99.20;;;;;;10473441;28;20209;-83
2022/09/29 14:28:07;;;;;;;6.37;6.07;;;15.90;99.70;;;;;;10474306;28;20223;-83
2022/09/29 14:33:15;;;;;;;6.40;5.90;;;15.80;99.40;;;;;;10474137;28;20290;-82
2022/09/29 14:38:21;;;;;;;5.10;4.80;;;15.80;98.60;;;;;;10474683;28;20201;-82
2022/09/29 14:43:26;;;;;;;6.30;5.90;;;15.70;98.90;;;;;;10477886;28;20221;-82
2022/09/29 14:54:05;;;;;;;6.10;5.70;;;15.60;99.00;;;;;;10443655;28;20316;-82
2022/09/29 14:59:19;;;;;;;4.30;4.10;;;15.60;98.20;;;;;;10464553;28;20208;-82
2022/09/29 15:04:22;;;;;;;5.57;4.97;;;15.60;99.50;;;;;;10460325;28;20312;-82
2022/09/29 15:09:25;;;;;;;5.50;5.17;;;15.60;99.70;;;;;;10459827;28;20198;-83
2022/09/29 15:14:30;;;;;;;5.67;5.20;;;15.60;98.90;;;;;;10464216;28;20693;-82
2022/09/29 15:19:46;;;;;;;4.57;4.27;;;15.60;99.40;;;;;;10464004;28;20252;-82
2022/09/29 15:25:08;;;;;;;8.37;5.40;;;15.60;99.90;;;;;;10443695;28;20220;-82
2022/09/29 15:30:16;;;;;;;5.40;5.10;;;15.50;99.90;;;;;;10457536;28;20212;-80
2022/09/29 15:35:22;;;;;;;8.00;5.97;;;15.50;99.60;;;;;;10467681;28;20765;-80
2022/09/29 15:40:26;;;;;;;6.00;5.50;;;15.50;99.10;;;;;;10469802;28;20227;-80
2022/09/29 15:45:29;;;;;;;6.27;5.77;;;15.50;99.90;;;;;;10472987;28;20212;-79
2022/09/29 15:50:34;;;;;;;5.50;5.20;;;15.40;99.50;;;;;;10478855;28;20267;-80
2022/09/29 15:55:36;;;;;;;5.50;5.10;;;15.40;99.90;;;;;;10476195;28;20228;-80
2022/09/29 16:00:44;;;;;;;4.40;4.10;;;15.30;99.20;;;;;;10473918;28;20201;-80
2022/09/29 16:06:06;;;;;;;5.63;5.30;;;15.30;99.90;;;;;;10479028;28;20263;-80
2022/09/29 16:11:18;;;;;;;6.10;5.70;;;15.20;99.90;;;;;;10474605;28;20240;-80
2022/09/29 16:16:26;;;;;;;6.17;5.63;;;15.10;99.90;;;;;;10473439;28;20219;-80
2022/09/29 16:21:35;;;;;;;6.93;5.37;;;15.10;99.90;;;;;;10460641;28;20213;-80
2022/09/29 16:26:45;;;;;;;6.13;5.53;;;15.00;99.90;;;;;;10474783;28;20203;-80
2022/09/29 16:31:49;;;;;;;6.80;6.30;;;15.00;99.90;;;;;;10469680;28;20221;-79
2022/09/29 16:36:53;;;;;;;6.33;5.47;;;15.00;99.90;;;;;;10463751;28;20263;-80
2022/09/29 16:41:58;;;;;;;5.97;5.57;;;14.90;99.90;;;;;;10444170;28;20224;-79
2022/09/29 16:47:04;;;;;;;5.00;4.60;;;14.90;99.90;;;;;;10459841;28;20204;-79
2022/09/29 16:52:15;;;;;;;14.60;11.10;;;14.80;99.90;;;;;;10445892;28;20247;-80
2022/09/29 16:57:25;;;;;;;38.00;26.97;;;14.70;99.90;;;;;;10461168;28;20209;-81
2022/09/29 17:02:28;;;;;;;39.10;28.30;;;14.50;99.90;;;;;;10463678;28;20259;-81
2022/09/29 17:07:32;;;;;;;8.20;7.40;;;14.40;99.90;;;;;;10492267;28;20235;-81
2022/09/29 17:12:34;;;;;;;6.80;6.20;;;14.30;99.90;;;;;;10480435;28;20224;-81
2022/09/29 17:17:36;;;;;;;10.43;9.53;;;14.20;99.90;;;;;;10487269;28;20209;-81
2022/09/29 17:22:40;;;;;;;8.40;7.40;;;14.10;99.90;;;;;;10496201;28;20225;-81
2022/09/29 17:33:04;;;;;;;10.67;9.43;;;13.90;99.90;;;;;;10479921;28;20213;-81
2022/09/29 17:38:08;;;;;;;8.20;7.50;;;13.70;99.90;;;;;;10445915;28;20292;-82
2022/09/29 17:43:10;;;;;;;14.03;12.53;;;13.60;99.90;;;;;;10434603;28;20747;-82
2022/09/29 17:48:14;;;;;;;13.90;11.80;;;13.60;99.90;;;;;;10446010;28;20197;-82
2022/09/29 17:53:17;;;;;;;25.83;23.17;;;13.50;99.90;;;;;;10457371;23;20711;-80
2022/09/29 17:58:22;;;;;;;21.43;19.30;;;13.40;99.90;;;;;;10468965;28;20223;-79
2022/09/29 18:03:24;;;;;;;8.43;7.83;;;13.40;99.90;;;;;;10459164;28;20681;-80
2022/09/29 18:08:29;;;;;;;10.83;10.03;;;13.30;99.90;;;;;;10425309;28;20198;-79
2022/09/29 18:13:31;;;;;;;9.90;9.00;;;13.20;99.90;;;;;;10456390;28;20248;-79
2022/09/29 18:18:34;;;;;;;9.70;8.90;;;13.20;99.90;;;;;;10426066;28;20289;-80
2022/09/29 18:23:39;;;;;;;11.83;10.27;;;13.10;99.90;;;;;;10459856;28;20220;-80
2022/09/29 18:28:42;;;;;;;8.53;7.47;;;13.00;99.90;;;;;;10472349;28;20201;-79
2022/09/29 18:33:45;;;;;;;7.40;6.70;;;13.00;99.90;;;;;;10431170;28;20712;-78
2022/09/29 18:38:49;;;;;;;7.30;6.77;;;13.00;99.90;;;;;;10451755;28;20522;-78
2022/09/29 18:43:51;;;;;;;6.50;5.80;;;13.00;99.90;;;;;;10421259;28;20218;-78
2022/09/29 18:48:53;;;;;;;7.40;6.03;;;13.00;99.90;;;;;;10446587;28;20212;-78
2022/09/29 18:53:57;;;;;;;5.13;4.63;;;13.00;99.90;;;;;;10421094;28;20245;-78
2022/09/29 18:59:00;;;;;;;6.50;5.97;;;13.00;99.90;;;;;;10418296;28;20197;-78
2022/09/29 19:04:04;;;;;;;8.60;8.00;;;12.90;99.90;;;;;;10446578;28;20240;-78
2022/09/29 19:09:07;;;;;;;7.80;7.07;;;12.90;99.90;;;;;;10422225;28;20676;-78
2022/09/29 19:14:09;;;;;;;7.57;7.00;;;12.90;99.90;;;;;;10428372;28;20243;-78
2022/09/29 19:19:11;;;;;;;8.20;7.07;;;12.90;99.90;;;;;;10428977;28;20720;-79
2022/09/29 19:24:16;;;;;;;25.67;16.10;;;12.80;99.90;;;;;;10462586;28;20217;-78
2022/09/29 19:29:19;;;;;;;23.27;17.23;;;12.80;99.90;;;;;;10434242;28;20669;-79
2022/09/29 19:34:21;;;;;;;10.50;8.93;;;12.80;99.90;;;;;;10456017;28;20240;-79
2022/09/29 19:39:27;;;;;;;10.90;9.80;;;12.80;99.90;;;;;;10440483;28;20248;-78
2022/09/29 19:44:30;;;;;;;12.70;11.60;;;12.70;99.90;;;;;;10460854;28;20220;-79
2022/09/29 19:49:33;;;;;;;9.03;8.23;;;12.70;99.90;;;;;;10432355;28;20198;-79
2022/09/29 19:54:38;;;;;;;7.77;6.87;;;12.70;99.90;;;;;;10453837;28;20221;-78
2022/09/29 19:59:42;;;;;;;9.53;8.63;;;12.60;99.90;;;;;;10458640;28;20197;-79
2022/09/29 20:04:44;;;;;;;9.20;8.40;;;12.60;99.90;;;;;;10431484;28;20264;-78
2022/09/29 20:09:48;;;;;;;11.10;9.80;;;12.60;99.90;;;;;;10453531;28;20652;-79
2022/09/29 20:14:50;;;;;;;11.53;10.43;;;12.50;99.90;;;;;;10436133;28;20225;-79
2022/09/29 20:19:52;;;;;;;9.90;8.90;;;12.40;99.90;;;;;;10430244;28;20626;-78
2022/09/29 20:24:56;;;;;;;10.50;9.50;;;12.40;99.90;;;;;;10413044;28;20210;-77
2022/09/29 20:29:58;;;;;;;9.00;7.90;;;12.40;99.90;;;;;;10442436;28;20243;-78
2022/09/29 20:35:00;;;;;;;8.30;7.40;;;12.30;99.90;;;;;;10426396;28;20210;-78
2022/09/29 20:40:04;;;;;;;8.90;8.00;;;12.20;99.90;;;;;;10441946;28;20221;-78
2022/09/29 20:45:06;;;;;;;10.67;9.77;;;12.20;99.90;;;;;;10427187;28;20214;-78
2022/09/29 20:50:09;;;;;;;10.07;9.07;;;12.20;99.90;;;;;;10426261;28;20259;-78
2022/09/29 20:55:12;;;;;;;8.70;7.87;;;12.10;99.90;;;;;;10439516;28;20680;-79
2022/09/29 21:00:14;;;;;;;8.63;7.83;;;12.00;99.90;;;;;;10439536;28;20194;-78
2022/09/29 21:05:17;;;;;;;9.90;7.80;;;12.00;99.90;;;;;;10427037;28;20238;-78
2022/09/29 21:10:20;;;;;;;9.83;8.93;;;;;;;;;;10437364;28;20292;-78
2022/09/29 21:15:23;;;;;;;36.53;15.90;;;;;;;;;;10425986;28;20226;-78
2022/09/29 21:20:25;;;;;;;8.00;7.43;;;;;;;;;;10435293;28;20705;-79
2022/09/29 21:25:30;;;;;;;6.90;6.20;;;;;;;;;;10425482;28;20685;-78
2022/09/29 21:30:33;;;;;;;7.90;7.20;;;;;;;;;;10435828;28;20208;-77
2022/09/29 21:35:35;;;;;;;7.23;6.63;;;;;;;;;;10426101;28;20210;-77
2022/09/29 21:40:39;;;;;;;5.90;5.50;;;;;;;;;;10436166;28;20740;-77
2022/09/29 21:45:41;;;;;;;5.47;5.07;;;;;;;;;;10443401;28;20217;-78
2022/09/29 21:50:43;;;;;;;6.10;5.60;;;;;;;;;;10427299;28;20194;-78
2022/09/29 21:55:47;;;;;;;6.73;6.23;;;;;;;;;;10433854;28;20225;-78
2022/09/29 22:00:50;;;;;;;6.80;6.27;;;;;;;;;;10427757;28;20713;-78
2022/09/29 22:05:52;;;;;;;6.50;6.00;;;;;;;;;;10433320;28;20193;-78
2022/09/29 22:10:56;;;;;;;7.90;5.97;;;;;;;;;;10427872;28;20324;-78
2022/09/29 22:16:03;;;;;;;6.90;6.00;;;;;;;;;;10432276;28;20217;-78
2022/09/29 22:21:06;;;;;;;7.37;6.70;;;;;;;;;;10427952;28;20819;-79
2022/09/29 22:26:13;;;;;;;6.97;6.47;;;;;;;;;;10432800;28;20193;-77
2022/09/29 22:31:19;;;;;;;6.80;6.30;;;;;;;;;;10426120;28;20736;-78
2022/09/29 22:36:21;;;;;;;11.13;6.57;;;;;;;;;;10409509;28;20689;-78
2022/09/29 22:41:25;;;;;;;6.43;5.87;;;;;;;;;;10410124;28;20218;-77
2022/09/29 22:46:28;;;;;;;6.20;5.60;;;;;;;;;;10409470;28;20222;-78
2022/09/29 22:51:31;;;;;;;6.90;6.40;;;;;;;;;;10430967;28;20224;-79
2022/09/29 22:56:35;;;;;;;6.60;6.00;;;;;;;;;;10434085;28;20301;-78
2022/09/29 23:01:37;;;;;;;6.53;6.00;;;;;;;;;;10436522;28;20650;-78
2022/09/29 23:06:40;;;;;;;10.10;6.20;;;;;;;;;;10432146;28;20247;-78
2022/09/29 23:11:43;;;;;;;6.90;6.30;;;;;;;;;;10436277;28;20217;-79
2022/09/29 23:16:46;;;;;;;6.90;6.37;;;;;;;;;;10436952;28;20222;-80
2022/09/29 23:21:48;;;;;;;6.40;5.40;;;;;;;;;;10436837;28;20225;-78
2022/09/29 23:26:52;;;;;;;8.43;6.40;;;;;;;;;;10436387;28;20193;-79
2022/09/29 23:31:55;;;;;;;6.40;5.90;;;;;;;;;;10434980;28;20213;-78
2022/09/29 23:36:58;;;;;;;7.27;6.57;;;;;;;;;;10436770;28;20581;-79
2022/09/29 23:42:07;;;;;;;6.30;5.80;;;;;;;;;;10434643;28;20255;-78
2022/09/29 23:47:09;;;;;;;7.17;6.57;;;;;;;;;;10445510;28;20716;-79
2022/09/29 23:52:12;;;;;;;6.60;6.10;;;;;;;;;;10459605;22;20327;-80
2022/09/29 23:57:16;;;;;;;6.87;6.27;;;;;;;;;;10461958;28;20228;-80
